Time;durP1;ratioP1;P1;durP2;ratioP2;P2;SDS_P1;SDS_P2;PMS_P1;PMS_P2;Temp;Humidity;BMP_temperature;BMP_pressure;BME280_temperature;BME280_humidity;BME280_pressure;Samples;Min_cycle;Max_cycle;Signal;HPM_P1;HPM_P2
2023/10/02 00:09:38;;;;;;;6.30;2.57;;;;;;;;;;20836145;28;20304;-82
2023/10/02 00:19:44;;;;;;;4.00;2.17;;;;;;;;;;20809983;28;20226;-85
2023/10/02 00:29:52;;;;;;;3.60;2.07;;;;;;;;;;20792217;28;20226;-85
2023/10/02 00:39:53;;;;;;;3.07;2.20;;;;;;;;;;20816709;28;20206;-83
2023/10/02 00:50:06;;;;;;;5.47;2.20;;;;;;;;;;20833525;28;20234;-85
2023/10/02 01:00:19;;;;;;;4.10;2.30;;;;;;;;;;20784194;28;20214;-84
2023/10/02 01:10:23;;;;;;;4.10;2.17;;;;;;;;;;20795684;28;20292;-83
2023/10/02 01:20:35;;;;;;;3.53;2.00;;;;;;;;;;20780285;28;20207;-83
2023/10/02 01:30:37;;;;;;;8.33;5.07;;;;;;;;;;20770652;28;20226;-81
2023/10/02 01:40:43;;;;;;;13.53;7.60;;;;;;;;;;20811250;28;20260;-85
2023/10/02 01:50:45;;;;;;;13.43;7.17;;;;;;;;;;20761528;28;20237;-83
2023/10/02 02:00:46;;;;;;;9.70;5.17;;;;;;;;;;20771152;28;20214;-82
2023/10/02 02:10:50;;;;;;;4.53;2.77;;;;;;;;;;20790616;28;20222;-83
2023/10/02 02:20:58;;;;;;;3.60;2.33;;;;;;;;;;20766515;28;20709;-84
2023/10/02 02:31:00;;;;;;;5.20;2.13;;;;;;;;;;20814740;28;20215;-83
2023/10/02 02:41:08;;;;;;;3.67;2.37;;;;;;;;;;20815541;28;20261;-83
2023/10/02 02:51:18;;;;;;;4.40;2.17;;;;;;;;;;20798385;28;20226;-84
2023/10/02 03:01:24;;;;;;;5.03;2.53;;;;;;;;;;20800191;28;20284;-84
2023/10/02 03:11:29;;;;;;;3.43;2.13;;;;;;;;;;20804907;28;20222;-82
2023/10/02 03:21:31;;;;;;;5.70;2.43;;;;;;;;;;20785292;28;20213;-84
2023/10/02 03:31:37;;;;;;;3.40;2.20;;;;;;;;;;20742210;28;20272;-83
2023/10/02 03:41:48;;;;;;;3.53;2.20;;;;;;;;;;20808678;28;20227;-84
2023/10/02 03:51:50;;;;;;;4.50;2.40;;;;;;;;;;20766148;28;20280;-82
2023/10/02 04:01:53;;;;;;;3.60;2.20;;;15.50;99.90;;;;;;20819320;28;20223;-84
2023/10/02 04:11:55;;;;;;;3.43;2.03;;;;;;;;;;20774020;28;20226;-81
2023/10/02 04:21:58;;;;;;;3.57;2.07;;;;;;;;;;20818283;28;20230;-82
2023/10/02 04:32:18;;;;;;;4.63;1.90;;;;;;;;;;20784694;28;20282;-82
2023/10/02 04:42:22;;;;;;;5.20;2.60;;;15.30;99.90;;;;;;20799380;28;20241;-81
2023/10/02 04:52:53;;;;;;;4.70;2.37;;;;;;;;;;20795726;28;20253;-82
2023/10/02 05:02:47;;;;;;;4.63;2.47;;;;;;;;;;20792125;28;20226;-81
2023/10/02 05:12:49;;;;;;;4.33;2.30;;;;;;;;;;20800957;28;20233;-82
2023/10/02 05:22:58;;;;;;;4.47;2.30;;;;;;;;;;20813389;28;20623;-81
2023/10/02 05:33:06;;;;;;;4.20;2.23;;;;;;;;;;20782018;28;20256;-81
2023/10/02 05:53:11;;;;;;;4.97;2.40;;;;;;;;;;20804452;28;20234;-83
2023/10/02 06:03:15;;;;;;;5.07;2.57;;;;;;;;;;20795803;28;20249;-81
2023/10/02 06:13:18;;;;;;;4.43;2.43;;;;;;;;;;20806454;28;20264;-82
2023/10/02 06:23:45;;;;;;;4.23;2.60;;;;;;;;;;20778660;28;20210;-82
2023/10/02 06:34:05;;;;;;;3.80;2.50;;;;;;;;;;20761551;28;20222;-81
2023/10/02 06:44:14;;;;;;;3.70;2.30;;;;;;;;;;20795595;28;20230;-81
2023/10/02 06:54:19;;;;;;;3.70;2.30;;;;;;;;;;20789733;28;20234;-82
2023/10/02 07:04:22;;;;;;;4.07;2.10;;;;;;;;;;20799090;28;20326;-82
2023/10/02 07:14:24;;;;;;;4.20;2.00;;;;;;;;;;20819683;28;20300;-82
2023/10/02 07:24:28;;;;;;;4.13;2.33;;;;;;;;;;20813382;28;20219;-81
2023/10/02 07:34:30;;;;;;;4.47;2.20;;;;;;;;;;20815726;28;20904;-81
2023/10/02 07:44:36;;;;;;;3.93;2.43;;;;;;;;;;20783772;28;20252;-82
2023/10/02 07:54:44;;;;;;;4.20;2.10;;;;;;;;;;20780648;28;20284;-82
2023/10/02 08:04:47;;;;;;;4.17;2.20;;;;;;;;;;20806425;28;20570;-83
2023/10/02 08:14:50;;;;;;;6.07;2.57;;;;;;;;;;20812548;28;20226;-84
2023/10/02 08:24:52;;;;;;;4.47;2.70;;;;;;;;;;20771693;28;20670;-83
2023/10/02 08:34:54;;;;;;;4.50;2.80;;;;;;;;;;20798600;28;20214;-85
2023/10/02 08:45:00;;;;;;;6.23;2.93;;;;;;;;;;20829913;28;20779;-84
2023/10/02 08:55:33;;;;;;;6.47;3.00;;;;;;;;;;20873764;28;20226;-83
2023/10/02 09:05:36;;;;;;;7.00;2.60;;;;;;;;;;20801878;28;20211;-84
2023/10/02 09:15:44;;;;;;;4.70;2.73;;;;;;;;;;20795341;28;20696;-84
2023/10/02 09:26:16;;;;;;;5.40;2.70;;;18.60;99.90;;;;;;20832367;28;20234;-83
2023/10/02 09:36:34;;;;;;;4.77;2.67;;;;;;;;;;20795325;28;20214;-82
2023/10/02 09:46:38;;;;;;;4.20;2.37;;;19.20;99.90;;;;;;20810440;28;20234;-82
2023/10/02 09:57:31;;;;;;;5.60;3.00;;;;;;;;;;20778977;28;20234;-83
2023/10/02 10:07:46;;;;;;;3.63;2.30;;;20.00;99.90;;;;;;20847274;28;20249;-82
2023/10/02 10:17:51;;;;;;;4.10;2.37;;;;;;;;;;20835396;28;20269;-82
2023/10/02 10:28:08;;;;;;;4.40;2.63;;;;;;;;;;20820180;28;20227;-83
2023/10/02 10:38:25;;;;;;;4.03;2.17;;;;;;;;;;20787860;28;20224;-85
2023/10/02 10:48:27;;;;;;;4.37;2.57;;;;;;;;;;20837358;28;21121;-84
2023/10/02 10:58:35;;;;;;;4.33;2.57;;;;;;;;;;20801341;28;20221;-84
2023/10/02 11:08:38;;;;;;;5.27;2.60;;;;;;;;;;20788995;28;20220;-85
2023/10/02 11:18:40;;;;;;;5.30;2.50;;;;;;;;;;20801251;28;20766;-82
2023/10/02 11:28:43;;;;;;;5.23;2.67;;;;;;;;;;20800289;28;20576;-83
2023/10/02 11:38:44;;;;;;;4.93;2.97;;;;;;;;;;20810583;28;20246;-82
2023/10/02 11:48:49;;;;;;;4.37;2.73;;;;;;;;;;20792025;28;20220;-84
2023/10/02 11:58:56;;;;;;;4.97;2.80;;;;;;;;;;20854358;28;20666;-83
2023/10/02 12:08:58;;;;;;;4.57;2.90;;;;;;;;;;20832740;28;20236;-83
2023/10/02 12:19:00;;;;;;;5.10;3.00;;;;;;;;;;20786400;28;20221;-83
2023/10/02 12:29:02;;;;;;;4.45;2.80;;;;;;;;;;20844764;28;20231;-83
2023/10/02 12:39:09;;;;;;;6.43;3.07;;;;;;;;;;20795401;28;20273;-84
2023/10/02 12:49:15;;;;;;;5.28;3.08;;;24.00;99.90;;;;;;20785938;28;20299;-84
2023/10/02 12:59:17;;;;;;;5.43;2.95;;;;;;;;;;20807033;28;20226;-84
2023/10/02 13:09:19;;;;;;;5.55;2.97;;;;;;;;;;20823855;28;20584;-84
2023/10/02 13:19:21;;;;;;;6.93;2.95;;;;;;;;;;20840961;28;20210;-84
2023/10/02 13:29:24;;;;;;;5.68;3.13;;;;;;;;;;20792578;28;20275;-84
2023/10/02 13:39:26;;;;;;;5.80;3.53;;;;;;;;;;20809442;28;20237;-83
2023/10/02 13:49:29;;;;;;;5.28;3.05;;;;;;;;;;20812443;28;20254;-83
2023/10/02 13:59:31;;;;;;;4.80;2.85;;;;;;;;;;20813138;28;20630;-83
2023/10/02 14:09:33;;;;;;;3.97;2.47;;;;;;;;;;20837768;28;20211;-84
2023/10/02 14:19:35;;;;;;;6.15;3.10;;;;;;;;;;20787091;28;20219;-84
2023/10/02 14:29:37;;;;;;;5.03;2.58;;;;;;;;;;20804913;28;20268;-85
2023/10/02 14:39:39;;;;;;;5.78;2.90;;;;;;;;;;20804987;28;20206;-85
2023/10/02 14:49:41;;;;;;;6.30;3.38;;;;;;;;;;20781865;28;20283;-85
2023/10/02 14:59:43;;;;;;;8.80;3.33;;;;;;;;;;20798226;28;20209;-82
2023/10/02 15:09:45;;;;;;;4.57;2.70;;;;;;;;;;20822608;28;20251;-86
2023/10/02 15:19:47;;;;;;;5.55;2.97;;;;;;;;;;20825809;28;20774;-83
2023/10/02 15:29:49;;;;;;;5.75;3.00;;;;;;;;;;20839580;28;20555;-83
2023/10/02 15:39:51;;;;;;;6.63;3.60;;;;;;;;;;20847139;28;20279;-82
2023/10/02 15:49:53;;;;;;;4.80;2.47;;;;;;;;;;20822930;28;20233;-83
2023/10/02 15:59:56;;;;;;;4.68;3.22;;;;;;;;;;20820050;28;20696;-81
2023/10/02 16:09:58;;;;;;;5.78;3.40;;;;;;;;;;20856656;28;20231;-82
2023/10/02 16:20:00;;;;;;;6.97;2.60;;;;;;;;;;20822084;28;20272;-82
2023/10/02 16:30:02;;;;;;;6.00;3.55;;;;;;;;;;20840255;28;20220;-83
2023/10/02 16:40:08;;;;;;;7.15;2.95;;;;;;;;;;20814462;28;20226;-84
2023/10/02 16:50:12;;;;;;;6.40;3.20;;;;;;;;;;20836847;28;20256;-82
2023/10/02 17:00:14;;;;;;;6.13;3.13;;;;;;;;;;20849970;28;20219;-85
2023/10/02 17:10:16;;;;;;;9.40;3.67;;;;;;;;;;20853958;28;20230;-81
2023/10/02 17:20:20;;;;;;;7.88;3.50;;;;;;;;;;20824485;28;20307;-83
2023/10/02 17:30:24;;;;;;;7.53;3.80;;;;;;;;;;20841759;28;20224;-83
2023/10/02 17:40:25;;;;;;;8.77;3.38;;;;;;;;;;20805690;28;20223;-83
2023/10/02 17:50:27;;;;;;;8.23;3.63;;;;;;;;;;20830783;28;20228;-84
2023/10/02 18:00:30;;;;;;;15.98;4.60;;;;;;;;;;20808641;28;20234;-84
2023/10/02 18:10:32;;;;;;;11.50;4.22;;;20.90;99.90;;;;;;20808580;28;20221;-82
2023/10/02 18:20:38;;;;;;;8.80;3.93;;;;;;;;;;20809565;28;20651;-82
2023/10/02 18:30:40;;;;;;;8.77;3.60;;;;;;;;;;20823207;28;20225;-81
2023/10/02 18:40:46;;;;;;;6.93;3.42;;;;;;;;;;20786924;28;20218;-82
2023/10/02 18:50:48;;;;;;;9.63;3.33;;;;;;;;;;20777735;28;20236;-84
2023/10/02 19:00:50;;;;;;;4.68;2.78;;;;;;;;;;20799232;28;20282;-83
2023/10/02 19:10:55;;;;;;;8.57;3.57;;;;;;;;;;20819150;28;20659;-82
2023/10/02 19:20:57;;;;;;;9.97;3.77;;;;;;;;;;20806868;28;20268;-83
2023/10/02 19:31:00;;;;;;;8.17;3.90;;;20.50;99.90;;;;;;20818234;28;20245;-84
2023/10/02 19:41:01;;;;;;;12.97;4.90;;;;;;;;;;20798904;28;20246;-86
2023/10/02 19:51:08;;;;;;;8.10;4.00;;;;;;;;;;20818178;28;20235;-85
2023/10/02 20:01:09;;;;;;;6.97;4.17;;;20.30;99.90;;;;;;20814744;28;20203;-82
2023/10/02 20:11:11;;;;;;;7.57;4.10;;;;;;;;;;20835909;28;20659;-86
2023/10/02 20:21:14;;;;;;;8.87;4.63;;;;;;;;;;20791510;28;20231;-83
2023/10/02 20:31:16;;;;;;;8.07;4.77;;;;;;;;;;20820706;28;20213;-84
2023/10/02 20:41:18;;;;;;;7.60;4.00;;;;;;;;;;20796050;28;20700;-84
2023/10/02 20:51:20;;;;;;;6.33;3.50;;;;;;;;;;20787805;28;20233;-83
2023/10/02 21:01:23;;;;;;;7.30;4.03;;;;;;;;;;20801312;28;20745;-83
2023/10/02 21:11:26;;;;;;;8.60;4.00;;;;;;;;;;20800693;28;20700;-82
2023/10/02 21:21:28;;;;;;;6.40;3.77;;;;;;;;;;20807603;28;20248;-83
2023/10/02 21:31:31;;;;;;;5.50;3.70;;;;;;;;;;20803384;28;20706;-84
2023/10/02 21:41:34;;;;;;;7.77;4.13;;;;;;;;;;20798535;28;20641;-84
2023/10/02 21:51:35;;;;;;;6.63;4.00;;;;;;;;;;20821477;28;20227;-82
2023/10/02 22:01:37;;;;;;;7.37;4.00;;;;;;;;;;20808456;28;20753;-81
2023/10/02 22:11:40;;;;;;;6.80;3.77;;;;;;;;;;20775225;28;20223;-83
2023/10/02 22:21:48;;;;;;;7.87;4.07;;;;;;;;;;20817017;28;20251;-82
2023/10/02 22:31:51;;;;;;;9.00;4.90;;;18.80;99.90;;;;;;20804572;28;20646;-83
2023/10/02 22:41:54;;;;;;;6.73;4.17;;;;;;;;;;20803950;28;20674;-84
2023/10/02 22:51:56;;;;;;;8.07;4.00;;;;;;;;;;20797395;28;20220;-84
2023/10/02 23:01:59;;;;;;;8.03;4.50;;;;;;;;;;20794583;28;20250;-83
2023/10/02 23:12:04;;;;;;;9.00;4.70;;;;;;;;;;20798537;28;20226;-82
2023/10/02 23:22:07;;;;;;;7.10;4.03;;;;;;;;;;20838274;28;20191;-84
2023/10/02 23:32:11;;;;;;;8.23;4.33;;;;;;;;;;20728408;28;20236;-83
2023/10/02 23:42:12;;;;;;;8.23;4.53;;;;;;;;;;20792562;28;20273;-82
2023/10/02 23:52:15;;;;;;;7.03;3.77;;;;;;;;;;20821889;28;20231;-86
